sensor_id;sensor_type;location;lat;lon;timestamp;pressure;altitude;pressure_sealevel;temperature;humidity
30110;BME280;14965;50.660;13.226;2024-03-02T00:00:50;93828.00;;;6.16;100.00
30110;BME280;14965;50.660;13.226;2024-03-02T00:03:16;93827.22;;;6.16;100.00
30110;BME280;14965;50.660;13.226;2024-03-02T00:05:42;93825.56;;;6.18;100.00
30110;BME280;14965;50.660;13.226;2024-03-02T00:08:10;93826.69;;;6.21;100.00
30110;BME280;14965;50.660;13.226;2024-03-02T00:10:38;93824.72;;;6.21;100.00
30110;BME280;14965;50.660;13.226;2024-03-02T00:13:04;93832.53;;;6.23;100.00
30110;BME280;14965;50.660;13.226;2024-03-02T00:15:42;93821.88;;;6.25;100.00
30110;BME280;14965;50.660;13.226;2024-03-02T00:18:10;93826.50;;;6.28;100.00
30110;BME280;14965;50.660;13.226;2024-03-02T00:20:37;93824.50;;;6.29;100.00
30110;BME280;14965;50.660;13.226;2024-03-02T00:23:05;93823.31;;;6.30;100.00
30110;BME280;14965;50.660;13.226;2024-03-02T00:25:39;93822.53;;;6.29;100.00
30110;BME280;14965;50.660;13.226;2024-03-02T00:28:05;93822.53;;;6.29;100.00
30110;BME280;14965;50.660;13.226;2024-03-02T00:30:54;93822.53;;;6.29;100.00
30110;BME280;14965;50.660;13.226;2024-03-02T00:33:21;93827.25;;;6.29;100.00
30110;BME280;14965;50.660;13.226;2024-03-02T00:35:48;93816.28;;;6.29;100.00
30110;BME280;14965;50.660;13.226;2024-03-02T00:38:14;93827.25;;;6.29;100.00
30110;BME280;14965;50.660;13.226;2024-03-02T00:40:42;93824.50;;;6.29;100.00
30110;BME280;14965;50.660;13.226;2024-03-02T00:43:42;93820.56;;;6.30;100.00
30110;BME280;14965;50.660;13.226;2024-03-02T00:46:15;93822.09;;;6.31;100.00
30110;BME280;14965;50.660;13.226;2024-03-02T00:48:53;93815.41;;;6.32;100.00
30110;BME280;14965;50.660;13.226;2024-03-02T00:51:20;93822.53;;;6.29;100.00
30110;BME280;14965;50.660;13.226;2024-03-02T00:53:47;93814.31;;;6.29;100.00
30110;BME280;14965;50.660;13.226;2024-03-02T00:56:14;93815.84;;;6.30;100.00
30110;BME280;14965;50.660;13.226;2024-03-02T00:58:40;93820.56;;;6.30;100.00
30110;BME280;14965;50.660;13.226;2024-03-02T01:01:06;93816.59;;;6.31;100.00
30110;BME280;14965;50.660;13.226;2024-03-02T01:03:32;93818.59;;;6.30;100.00
30110;BME280;14965;50.660;13.226;2024-03-02T01:05:58;93815.84;;;6.30;100.00
30110;BME280;14965;50.660;13.226;2024-03-02T01:08:24;93820.13;;;6.31;100.00
30110;BME280;14965;50.660;13.226;2024-03-02T01:10:50;93810.25;;;6.34;100.00
30110;BME280;14965;50.660;13.226;2024-03-02T01:13:17;93808.63;;;6.36;100.00
30110;BME280;14965;50.660;13.226;2024-03-02T01:15:44;93813.66;;;6.38;100.00
30110;BME280;14965;50.660;13.226;2024-03-02T01:18:10;93810.91;;;6.38;100.00
30110;BME280;14965;50.660;13.226;2024-03-02T01:20:35;93814.44;;;6.38;100.00
30110;BME280;14965;50.660;13.226;2024-03-02T01:23:01;93808.19;;;6.38;100.00
30110;BME280;14965;50.660;13.226;2024-03-02T01:25:27;93811.25;;;6.40;100.00
30110;BME280;14965;50.660;13.226;2024-03-02T01:27:53;93815.63;;;6.37;100.00
30110;BME280;14965;50.660;13.226;2024-03-02T01:30:20;93815.63;;;6.37;100.00
30110;BME280;14965;50.660;13.226;2024-03-02T01:32:46;93810.91;;;6.38;100.00
30110;BME280;14965;50.660;13.226;2024-03-02T01:35:12;93817.16;;;6.38;100.00
30110;BME280;14965;50.660;13.226;2024-03-02T01:37:39;93814.88;;;6.37;100.00
30110;BME280;14965;50.660;13.226;2024-03-02T01:40:06;93815.63;;;6.37;100.00
30110;BME280;14965;50.660;13.226;2024-03-02T01:42:32;93808.63;;;6.36;100.00
30110;BME280;14965;50.660;13.226;2024-03-02T01:44:58;93805.97;;;6.33;100.00
30110;BME280;14965;50.660;13.226;2024-03-02T01:47:25;93806.44;;;6.31;100.00
30110;BME280;14965;50.660;13.226;2024-03-02T01:49:51;93801.72;;;6.32;100.00
30110;BME280;14965;50.660;13.226;2024-03-02T01:52:17;93809.16;;;6.31;100.00
30110;BME280;14965;50.660;13.226;2024-03-02T01:54:43;93805.63;;;6.31;100.00
30110;BME280;14965;50.660;13.226;2024-03-02T01:57:09;93818.25;;;6.28;100.00
30110;BME280;14965;50.660;13.226;2024-03-02T01:59:35;93817.50;;;6.28;100.00
30110;BME280;14965;50.660;13.226;2024-03-02T02:02:01;93819.91;;;6.26;100.00
30110;BME280;14965;50.660;13.226;2024-03-02T02:04:28;93820.34;;;6.24;100.00
30110;BME280;14965;50.660;13.226;2024-03-02T02:06:54;93821.09;;;6.24;100.00
30110;BME280;14965;50.660;13.226;2024-03-02T02:09:20;93818.38;;;6.24;100.00
30110;BME280;14965;50.660;13.226;2024-03-02T02:11:46;93811.78;;;6.22;100.00
30110;BME280;14965;50.660;13.226;2024-03-02T02:14:12;93802.00;;;6.21;100.00
30110;BME280;14965;50.660;13.226;2024-03-02T02:16:38;93806.38;;;6.18;100.00
30110;BME280;14965;50.660;13.226;2024-03-02T02:19:04;93802.56;;;6.16;100.00
30110;BME280;14965;50.660;13.226;2024-03-02T02:21:31;93800.59;;;6.16;100.00
30110;BME280;14965;50.660;13.226;2024-03-02T02:23:57;93800.59;;;6.16;100.00
30110;BME280;14965;50.660;13.226;2024-03-02T02:26:23;93793.13;;;6.17;100.00
30110;BME280;14965;50.660;13.226;2024-03-02T02:28:49;93794.09;;;6.10;100.00
30110;BME280;14965;50.660;13.226;2024-03-02T02:31:14;93796.06;;;6.10;100.00
30110;BME280;14965;50.660;13.226;2024-03-02T02:33:41;93783.56;;;6.09;100.00
30110;BME280;14965;50.660;13.226;2024-03-02T02:36:07;93780.38;;;6.10;100.00
30110;BME280;14965;50.660;13.226;2024-03-02T02:38:39;93786.31;;;6.09;100.00
30110;BME280;14965;50.660;13.226;2024-03-02T02:41:06;93791.03;;;6.08;100.00
30110;BME280;14965;50.660;13.226;2024-03-02T02:43:32;93794.53;;;6.09;100.00
30110;BME280;14965;50.660;13.226;2024-03-02T02:45:58;93788.28;;;6.08;100.00
30110;BME280;14965;50.660;13.226;2024-03-02T02:48:24;93783.13;;;6.10;100.00
30110;BME280;14965;50.660;13.226;2024-03-02T02:50:50;93778.09;;;6.09;100.00
30110;BME280;14965;50.660;13.226;2024-03-02T02:53:16;93777.31;;;6.08;100.00
30110;BME280;14965;50.660;13.226;2024-03-02T02:55:43;93775.78;;;6.07;100.00
30110;BME280;14965;50.660;13.226;2024-03-02T02:58:09;93769.53;;;6.07;100.00
30110;BME280;14965;50.660;13.226;2024-03-02T03:00:35;93768.34;;;6.08;100.00
30110;BME280;14965;50.660;13.226;2024-03-02T03:03:01;93775.44;;;6.05;100.00
30110;BME280;14965;50.660;13.226;2024-03-02T03:05:27;93768.44;;;6.04;100.00
30110;BME280;14965;50.660;13.226;2024-03-02T03:07:52;93774.69;;;6.05;100.00
30110;BME280;14965;50.660;13.226;2024-03-02T03:10:19;93780.16;;;6.05;100.00
30110;BME280;14965;50.660;13.226;2024-03-02T03:12:46;93774.25;;;6.06;100.00
30110;BME280;14965;50.660;13.226;2024-03-02T03:15:12;93779.75;;;6.06;100.00
30110;BME280;14965;50.660;13.226;2024-03-02T03:17:38;93784.78;;;6.08;100.00
30110;BME280;14965;50.660;13.226;2024-03-02T03:20:05;93780.50;;;6.07;100.00
30110;BME280;14965;50.660;13.226;2024-03-02T03:22:31;93786.75;;;6.07;100.00
30110;BME280;14965;50.660;13.226;2024-03-02T03:24:57;93788.59;;;6.10;100.00
30110;BME280;14965;50.660;13.226;2024-03-02T03:27:23;93790.94;;;6.12;100.00
30110;BME280;14965;50.660;13.226;2024-03-02T03:29:50;93785.88;;;6.10;100.00
30110;BME280;14965;50.660;13.226;2024-03-02T03:32:16;93787.84;;;6.10;100.00
30110;BME280;14965;50.660;13.226;2024-03-02T03:34:42;93787.44;;;6.11;100.00
30110;BME280;14965;50.660;13.226;2024-03-02T03:37:08;93789.28;;;6.14;100.00
30110;BME280;14965;50.660;13.226;2024-03-02T03:39:34;93787.31;;;6.15;100.00
30110;BME280;14965;50.660;13.226;2024-03-02T03:42:00;93792.34;;;6.16;100.00
30110;BME280;14965;50.660;13.226;2024-03-02T03:44:26;93786.88;;;6.16;100.00
30110;BME280;14965;50.660;13.226;2024-03-02T03:46:53;93781.84;;;6.15;100.00
30110;BME280;14965;50.660;13.226;2024-03-02T03:49:19;93787.75;;;6.13;100.00
30110;BME280;14965;50.660;13.226;2024-03-02T03:51:45;93791.25;;;6.14;100.00
30110;BME280;14965;50.660;13.226;2024-03-02T03:54:11;93797.19;;;6.12;100.00
30110;BME280;14965;50.660;13.226;2024-03-02T03:56:36;93796.41;;;6.12;100.00
30110;BME280;14965;50.660;13.226;2024-03-02T03:59:03;93800.38;;;6.11;100.00
30110;BME280;14965;50.660;13.226;2024-03-02T04:01:28;93798.38;;;6.11;100.00
30110;BME280;14965;50.660;13.226;2024-03-02T04:03:56;93810.88;;;6.12;100.00
30110;BME280;14965;50.660;13.226;2024-03-02T04:06:21;93803.41;;;6.13;100.00
30110;BME280;14965;50.660;13.226;2024-03-02T04:08:47;93803.88;;;6.11;100.00
30110;BME280;14965;50.660;13.226;2024-03-02T04:11:13;93807.78;;;6.10;100.00
30110;BME280;14965;50.660;13.226;2024-03-02T04:13:39;93798.03;;;6.09;100.00
30110;BME280;14965;50.660;13.226;2024-03-02T04:16:06;93809.00;;;6.09;100.00
30110;BME280;14965;50.660;13.226;2024-03-02T04:18:31;93808.69;;;6.07;100.00
30110;BME280;14965;50.660;13.226;2024-03-02T04:20:59;93807.16;;;6.06;100.00
30110;BME280;14965;50.660;13.226;2024-03-02T04:23:24;93815.38;;;6.06;100.00
30110;BME280;14965;50.660;13.226;2024-03-02T04:25:50;93817.78;;;6.04;100.00
30110;BME280;14965;50.660;13.226;2024-03-02T04:28:17;93824.38;;;6.07;100.00
30110;BME280;14965;50.660;13.226;2024-03-02T04:30:43;93825.91;;;6.08;100.00
30110;BME280;14965;50.660;13.226;2024-03-02T04:33:09;93826.66;;;6.08;100.00
30110;BME280;14965;50.660;13.226;2024-03-02T04:35:34;93824.38;;;6.07;100.00
30110;BME280;14965;50.660;13.226;2024-03-02T04:38:02;93822.81;;;6.06;100.00
30110;BME280;14965;50.660;13.226;2024-03-02T04:40:28;93829.09;;;6.06;100.00
30110;BME280;14965;50.660;13.226;2024-03-02T04:42:54;93821.63;;;6.07;100.00
30110;BME280;14965;50.660;13.226;2024-03-02T04:45:20;93827.88;;;6.07;100.00
30110;BME280;14965;50.660;13.226;2024-03-02T04:47:46;93823.91;;;6.08;100.00
30110;BME280;14965;50.660;13.226;2024-03-02T04:50:12;93819.97;;;6.09;100.00
30110;BME280;14965;50.660;13.226;2024-03-02T04:52:38;93823.47;;;6.10;100.00
30110;BME280;14965;50.660;13.226;2024-03-02T04:55:06;93835.66;;;6.09;100.00
30110;BME280;14965;50.660;13.226;2024-03-02T04:57:32;93840.81;;;6.07;100.00
30110;BME280;14965;50.660;13.226;2024-03-02T04:59:57;93833.34;;;6.07;100.00
30110;BME280;14965;50.660;13.226;2024-03-02T05:02:24;93832.59;;;6.07;100.00
30110;BME280;14965;50.660;13.226;2024-03-02T05:04:49;93843.56;;;6.07;100.00
30110;BME280;14965;50.660;13.226;2024-03-02T05:07:15;93849.81;;;6.07;100.00
30110;BME280;14965;50.660;13.226;2024-03-02T05:09:45;93843.09;;;6.08;100.00
30110;BME280;14965;50.660;13.226;2024-03-02T05:12:12;93841.56;;;6.07;100.00
30110;BME280;14965;50.660;13.226;2024-03-02T05:14:38;93852.53;;;6.07;100.00
30110;BME280;14965;50.660;13.226;2024-03-02T05:17:04;93852.19;;;6.05;100.00
30110;BME280;14965;50.660;13.226;2024-03-02T05:19:30;93848.69;;;6.05;100.00
30110;BME280;14965;50.660;13.226;2024-03-02T05:21:56;93856.13;;;6.04;100.00
30110;BME280;14965;50.660;13.226;2024-03-02T05:24:22;93862.84;;;6.03;100.00
30110;BME280;14965;50.660;13.226;2024-03-02T05:26:47;93856.13;;;6.04;100.00
30110;BME280;14965;50.660;13.226;2024-03-02T05:29:15;93859.66;;;6.05;100.00
30110;BME280;14965;50.660;13.226;2024-03-02T05:31:41;93860.41;;;6.05;100.00
30110;BME280;14965;50.660;13.226;2024-03-02T05:34:06;93865.47;;;6.07;100.00
30110;BME280;14965;50.660;13.226;2024-03-02T05:36:32;93869.75;;;6.08;100.00
30110;BME280;14965;50.660;13.226;2024-03-02T05:38:58;93877.53;;;6.09;100.00
30110;BME280;14965;50.660;13.226;2024-03-02T05:41:24;93872.81;;;6.10;100.00
30110;BME280;14965;50.660;13.226;2024-03-02T05:43:50;93881.81;;;6.10;100.00
30110;BME280;14965;50.660;13.226;2024-03-02T05:46:17;93883.38;;;6.11;100.00
30110;BME280;14965;50.660;13.226;2024-03-02T05:48:43;93890.81;;;6.11;100.00
30110;BME280;14965;50.660;13.226;2024-03-02T05:51:09;93887.63;;;6.12;100.00
30110;BME280;14965;50.660;13.226;2024-03-02T05:53:35;93891.59;;;6.11;100.00
30110;BME280;14965;50.660;13.226;2024-03-02T05:56:01;93888.84;;;6.11;100.00
30110;BME280;14965;50.660;13.226;2024-03-02T05:58:26;93897.06;;;6.11;100.00
30110;BME280;14965;50.660;13.226;2024-03-02T06:00:52;93886.50;;;6.10;100.00
30110;BME280;14965;50.660;13.226;2024-03-02T06:03:23;93902.97;;;6.10;100.00
30110;BME280;14965;50.660;13.226;2024-03-02T06:05:49;93893.97;;;6.09;100.00
30110;BME280;14965;50.660;13.226;2024-03-02T06:08:15;93908.13;;;6.08;100.00
30110;BME280;14965;50.660;13.226;2024-03-02T06:10:41;93904.63;;;6.07;100.00
30110;BME280;14965;50.660;13.226;2024-03-02T06:13:07;93912.06;;;6.07;100.00
30110;BME280;14965;50.660;13.226;2024-03-02T06:15:33;93912.84;;;6.07;100.00
30110;BME280;14965;50.660;13.226;2024-03-02T06:17:58;93912.84;;;6.07;100.00
30110;BME280;14965;50.660;13.226;2024-03-02T06:20:26;93912.50;;;6.05;100.00
30110;BME280;14965;50.660;13.226;2024-03-02T06:22:52;93919.94;;;6.05;100.00
30110;BME280;14965;50.660;13.226;2024-03-02T06:25:17;93920.72;;;6.05;100.00
30110;BME280;14965;50.660;13.226;2024-03-02T06:27:43;93919.94;;;6.05;100.00
30110;BME280;14965;50.660;13.226;2024-03-02T06:30:11;93925.00;;;6.06;100.00
30110;BME280;14965;50.660;13.226;2024-03-02T06:32:37;93925.00;;;6.06;100.00
30110;BME280;14965;50.660;13.226;2024-03-02T06:35:04;93919.53;;;6.06;100.00
30110;BME280;14965;50.660;13.226;2024-03-02T06:37:31;93920.31;;;6.07;100.00
30110;BME280;14965;50.660;13.226;2024-03-02T06:39:57;93921.84;;;6.08;100.00
30110;BME280;14965;50.660;13.226;2024-03-02T06:42:23;93920.38;;;6.03;100.00
30110;BME280;14965;50.660;13.226;2024-03-02T06:44:49;93926.28;;;6.02;100.00
30110;BME280;14965;50.660;13.226;2024-03-02T06:47:15;93927.50;;;6.01;100.00
30110;BME280;14965;50.660;13.226;2024-03-02T06:49:41;93925.09;;;6.03;100.00
30110;BME280;14965;50.660;13.226;2024-03-02T06:52:06;93922.38;;;6.03;100.00
30110;BME280;14965;50.660;13.226;2024-03-02T06:54:34;93934.09;;;6.03;100.00
30110;BME280;14965;50.660;13.226;2024-03-02T06:56:59;93928.63;;;6.03;100.00
30110;BME280;14965;50.660;13.226;2024-03-02T06:59:25;93930.59;;;6.03;100.00
30110;BME280;14965;50.660;13.226;2024-03-02T07:01:51;93938.44;;;6.01;100.00
30110;BME280;14965;50.660;13.226;2024-03-02T07:04:17;93940.44;;;6.00;100.00
30110;BME280;14965;50.660;13.226;2024-03-02T07:06:43;93939.22;;;6.01;100.00
30110;BME280;14965;50.660;13.226;2024-03-02T07:09:09;93947.03;;;6.03;100.00
30110;BME280;14965;50.660;13.226;2024-03-02T07:11:39;93942.63;;;6.05;100.00
30110;BME280;14965;50.660;13.226;2024-03-02T07:14:05;93950.44;;;6.07;100.00
30110;BME280;14965;50.660;13.226;2024-03-02T07:16:34;93951.22;;;6.07;100.00
30110;BME280;14965;50.660;13.226;2024-03-02T07:19:14;93953.50;;;6.09;100.00
30110;BME280;14965;50.660;13.226;2024-03-02T07:21:40;93948.38;;;6.11;100.00
30110;BME280;14965;50.660;13.226;2024-03-02T07:24:07;93949.81;;;6.15;100.00
30110;BME280;14965;50.660;13.226;2024-03-02T07:26:34;93951.25;;;6.20;100.00
30110;BME280;14965;50.660;13.226;2024-03-02T07:29:01;93945.78;;;6.20;100.00
30110;BME280;14965;50.660;13.226;2024-03-02T07:31:27;93948.84;;;6.22;100.00
30110;BME280;14965;50.660;13.226;2024-03-02T07:33:53;93949.19;;;6.24;100.00
30110;BME280;14965;50.660;13.226;2024-03-02T07:36:19;93946.09;;;6.22;100.00
30110;BME280;14965;50.660;13.226;2024-03-02T07:38:45;93954.88;;;6.17;100.00
30110;BME280;14965;50.660;13.226;2024-03-02T07:41:11;93960.13;;;6.11;100.00
30110;BME280;14965;50.660;13.226;2024-03-02T07:43:38;93960.22;;;6.08;100.00
30110;BME280;14965;50.660;13.226;2024-03-02T07:46:05;93963.38;;;6.06;100.00
30110;BME280;14965;50.660;13.226;2024-03-02T07:48:31;93968.44;;;6.08;100.00
30110;BME280;14965;50.660;13.226;2024-03-02T07:50:57;93977.41;;;6.08;100.00
30110;BME280;14965;50.660;13.226;2024-03-02T07:53:23;93971.41;;;6.13;100.00
30110;BME280;14965;50.660;13.226;2024-03-02T07:55:50;93968.13;;;6.18;100.00
30110;BME280;14965;50.660;13.226;2024-03-02T07:58:16;93964.53;;;6.21;100.00
30110;BME280;14965;50.660;13.226;2024-03-02T08:00:41;93966.75;;;6.27;100.00
30110;BME280;14965;50.660;13.226;2024-03-02T08:03:09;93972.91;;;6.31;100.00
30110;BME280;14965;50.660;13.226;2024-03-02T08:05:35;93974.03;;;6.33;100.00
30110;BME280;14965;50.660;13.226;2024-03-02T08:08:00;93971.50;;;6.39;100.00
30110;BME280;14965;50.660;13.226;2024-03-02T08:10:27;93977.75;;;6.39;100.00
30110;BME280;14965;50.660;13.226;2024-03-02T08:12:53;93974.50;;;6.44;100.00
30110;BME280;14965;50.660;13.226;2024-03-02T08:15:18;93974.81;;;6.46;100.00
30110;BME280;14965;50.660;13.226;2024-03-02T08:17:44;93967.81;;;6.45;100.00
30110;BME280;14965;50.660;13.226;2024-03-02T08:20:12;93970.56;;;6.45;100.00
30110;BME280;14965;50.660;13.226;2024-03-02T08:22:39;93968.75;;;6.39;100.00
30110;BME280;14965;50.660;13.226;2024-03-02T08:25:06;93981.38;;;6.36;100.00
30110;BME280;14965;50.660;13.226;2024-03-02T08:27:33;93977.75;;;6.39;100.00
30110;BME280;14965;50.660;13.226;2024-03-02T08:29:59;93977.75;;;6.39;100.00
30110;BME280;14965;50.660;13.226;2024-03-02T08:32:25;93988.91;;;6.48;100.00
30110;BME280;14965;50.660;13.226;2024-03-02T08:34:51;94000.78;;;6.58;100.00
30110;BME280;14965;50.660;13.226;2024-03-02T08:37:18;93994.75;;;6.63;100.00
30110;BME280;14965;50.660;13.226;2024-03-02T08:39:45;94000.91;;;6.67;100.00
30110;BME280;14965;50.660;13.226;2024-03-02T08:42:11;94008.94;;;6.74;100.00
30110;BME280;14965;50.660;13.226;2024-03-02T08:44:37;94002.91;;;6.80;100.00
30110;BME280;14965;50.660;13.226;2024-03-02T08:47:03;94006.00;;;6.82;100.00
30110;BME280;14965;50.660;13.226;2024-03-02T08:49:29;94018.53;;;6.83;100.00
30110;BME280;14965;50.660;13.226;2024-03-02T08:51:55;94021.25;;;6.83;100.00
30110;BME280;14965;50.660;13.226;2024-03-02T08:54:22;94022.78;;;6.84;100.00
30110;BME280;14965;50.660;13.226;2024-03-02T08:56:49;94014.25;;;6.82;100.00
30110;BME280;14965;50.660;13.226;2024-03-02T08:59:15;94030.34;;;6.80;100.00
30110;BME280;14965;50.660;13.226;2024-03-02T09:01:41;94033.09;;;6.80;100.00
30110;BME280;14965;50.660;13.226;2024-03-02T09:04:07;94026.84;;;6.79;100.00
30110;BME280;14965;50.660;13.226;2024-03-02T09:06:33;94023.25;;;6.82;100.00
30110;BME280;14965;50.660;13.226;2024-03-02T09:08:58;94024.34;;;6.85;100.00
30110;BME280;14965;50.660;13.226;2024-03-02T09:11:26;94034.44;;;6.88;100.00
30110;BME280;14965;50.660;13.226;2024-03-02T09:13:52;94025.34;;;6.91;100.00
30110;BME280;14965;50.660;13.226;2024-03-02T09:16:18;94026.88;;;6.92;100.00
30110;BME280;14965;50.660;13.226;2024-03-02T09:18:44;94017.44;;;6.93;100.00
30110;BME280;14965;50.660;13.226;2024-03-02T09:21:10;94025.66;;;6.93;100.00
30110;BME280;14965;50.660;13.226;2024-03-02T09:23:36;94026.44;;;6.93;100.00
30110;BME280;14965;50.660;13.226;2024-03-02T09:26:02;94019.75;;;6.94;100.00
30110;BME280;14965;50.660;13.226;2024-03-02T09:28:30;94020.84;;;6.97;100.00
30110;BME280;14965;50.660;13.226;2024-03-02T09:30:55;94014.94;;;6.98;100.00
30110;BME280;14965;50.660;13.226;2024-03-02T09:33:21;94013.63;;;7.03;100.00
30110;BME280;14965;50.660;13.226;2024-03-02T09:35:47;94013.53;;;7.07;100.00
30110;BME280;14965;50.660;13.226;2024-03-02T09:38:13;94005.50;;;7.12;100.00
30110;BME280;14965;50.660;13.226;2024-03-02T09:40:40;94002.22;;;7.17;100.00
30110;BME280;14965;50.660;13.226;2024-03-02T09:43:07;94006.28;;;7.26;100.00
30110;BME280;14965;50.660;13.226;2024-03-02T09:45:35;94009.72;;;7.30;100.00
30110;BME280;14965;50.660;13.226;2024-03-02T09:48:02;94010.72;;;7.36;100.00
30110;BME280;14965;50.660;13.226;2024-03-02T09:50:28;93997.28;;;7.51;100.00
30110;BME280;14965;50.660;13.226;2024-03-02T09:52:54;94002.34;;;7.65;100.00
30110;BME280;14965;50.660;13.226;2024-03-02T09:55:20;94000.38;;;7.78;100.00
30110;BME280;14965;50.660;13.226;2024-03-02T09:57:46;94003.53;;;7.89;100.00
30110;BME280;14965;50.660;13.226;2024-03-02T10:00:14;94008.91;;;7.93;100.00
30110;BME280;14965;50.660;13.226;2024-03-02T10:02:42;94010.34;;;7.85;100.00
30110;BME280;14965;50.660;13.226;2024-03-02T10:05:08;94011.25;;;7.82;100.00
30110;BME280;14965;50.660;13.226;2024-03-02T10:07:34;94011.13;;;7.85;100.00
30110;BME280;14965;50.660;13.226;2024-03-02T10:10:13;94009.03;;;7.89;100.00
30110;BME280;14965;50.660;13.226;2024-03-02T10:12:40;94009.78;;;7.90;100.00
30110;BME280;14965;50.660;13.226;2024-03-02T10:15:07;94008.28;;;7.76;100.00
30110;BME280;14965;50.660;13.226;2024-03-02T10:17:33;94009.28;;;7.69;100.00
30110;BME280;14965;50.660;13.226;2024-03-02T10:20:24;94012.47;;;7.55;100.00
30110;BME280;14965;50.660;13.226;2024-03-02T10:22:50;94008.41;;;7.47;100.00
30110;BME280;14965;50.660;13.226;2024-03-02T10:25:29;94010.06;;;7.44;100.00
30110;BME280;14965;50.660;13.226;2024-03-02T10:27:58;94001.69;;;7.48;100.00
30110;BME280;14965;50.660;13.226;2024-03-02T10:30:23;93994.56;;;7.51;100.00
30110;BME280;14965;50.660;13.226;2024-03-02T10:32:49;93997.19;;;7.54;100.00
30110;BME280;14965;50.660;13.226;2024-03-02T10:35:17;93988.19;;;7.54;100.00
30110;BME280;14965;50.660;13.226;2024-03-02T10:37:43;93982.13;;;7.59;100.00
30110;BME280;14965;50.660;13.226;2024-03-02T10:40:11;93989.38;;;7.65;100.00
30110;BME280;14965;50.660;13.226;2024-03-02T10:42:39;93976.97;;;7.73;100.00
30110;BME280;14965;50.660;13.226;2024-03-02T10:45:09;93981.22;;;7.87;100.00
30110;BME280;14965;50.660;13.226;2024-03-02T10:47:37;93969.63;;;8.05;100.00
30110;BME280;14965;50.660;13.226;2024-03-02T10:50:05;93971.13;;;8.19;100.00
30110;BME280;14965;50.660;13.226;2024-03-02T10:52:32;93962.44;;;8.20;100.00
30110;BME280;14965;50.660;13.226;2024-03-02T10:54:58;93966.59;;;8.25;100.00
30110;BME280;14965;50.660;13.226;2024-03-02T10:57:33;93967.00;;;8.36;100.00
30110;BME280;14965;50.660;13.226;2024-03-02T11:00:06;93965.38;;;8.61;100.00
30110;BME280;14965;50.660;13.226;2024-03-02T11:02:36;93971.78;;;8.80;100.00
30110;BME280;14965;50.660;13.226;2024-03-02T11:05:08;93962.09;;;8.97;100.00
30110;BME280;14965;50.660;13.226;2024-03-02T11:07:38;93970.41;;;9.06;100.00
30110;BME280;14965;50.660;13.226;2024-03-02T11:10:08;93967.53;;;9.10;100.00
30110;BME280;14965;50.660;13.226;2024-03-02T11:12:38;93969.75;;;9.24;100.00
30110;BME280;14965;50.660;13.226;2024-03-02T11:15:11;93963.22;;;9.40;99.47
30110;BME280;14965;50.660;13.226;2024-03-02T11:17:41;93974.31;;;9.49;99.11
30110;BME280;14965;50.660;13.226;2024-03-02T11:20:09;93965.56;;;9.41;97.76
30110;BME280;14965;50.660;13.226;2024-03-02T11:22:37;93964.06;;;9.18;95.79
30110;BME280;14965;50.660;13.226;2024-03-02T11:25:05;93968.97;;;8.92;97.48
30110;BME280;14965;50.660;13.226;2024-03-02T11:27:59;93975.75;;;8.79;98.00
30110;BME280;14965;50.660;13.226;2024-03-02T11:30:51;93967.13;;;8.67;98.82
30110;BME280;14965;50.660;13.226;2024-03-02T11:33:24;93979.06;;;8.73;100.00
30110;BME280;14965;50.660;13.226;2024-03-02T11:35:50;93970.69;;;8.77;100.00
30110;BME280;14965;50.660;13.226;2024-03-02T11:38:18;93969.16;;;8.76;100.00
30110;BME280;14965;50.660;13.226;2024-03-02T11:40:44;93960.56;;;8.96;100.00
30110;BME280;14965;50.660;13.226;2024-03-02T11:43:11;93949.56;;;9.27;100.00
30110;BME280;14965;50.660;13.226;2024-03-02T11:45:37;93965.72;;;9.47;100.00
30110;BME280;14965;50.660;13.226;2024-03-02T11:48:08;93953.69;;;9.63;98.53
30110;BME280;14965;50.660;13.226;2024-03-02T11:50:36;93955.56;;;9.75;97.36
30110;BME280;14965;50.660;13.226;2024-03-02T11:53:06;93958.19;;;9.88;96.79
30110;BME280;14965;50.660;13.226;2024-03-02T11:55:35;93962.50;;;10.07;95.87
30110;BME280;14965;50.660;13.226;2024-03-02T11:58:03;93949.34;;;10.11;93.23
30110;BME280;14965;50.660;13.226;2024-03-02T12:00:29;93953.94;;;10.23;93.19
30110;BME280;14965;50.660;13.226;2024-03-02T12:03:00;93956.00;;;10.41;93.17
30110;BME280;14965;50.660;13.226;2024-03-02T12:05:27;93956.91;;;10.38;90.54
30110;BME280;14965;50.660;13.226;2024-03-02T12:07:56;93963.81;;;10.43;91.89
30110;BME280;14965;50.660;13.226;2024-03-02T12:10:22;93963.19;;;10.30;91.65
30110;BME280;14965;50.660;13.226;2024-03-02T12:12:56;93950.00;;;10.25;92.55
30110;BME280;14965;50.660;13.226;2024-03-02T12:15:24;93950.88;;;10.21;92.21
30110;BME280;14965;50.660;13.226;2024-03-02T12:17:54;93952.72;;;10.15;91.93
30110;BME280;14965;50.660;13.226;2024-03-02T12:20:20;93944.44;;;10.06;91.27
30110;BME280;14965;50.660;13.226;2024-03-02T12:22:46;93951.03;;;10.00;92.38
30110;BME280;14965;50.660;13.226;2024-03-02T12:25:12;93950.09;;;10.03;93.52
30110;BME280;14965;50.660;13.226;2024-03-02T12:27:39;93953.66;;;10.12;94.12
30110;BME280;14965;50.660;13.226;2024-03-02T12:30:08;93956.88;;;10.20;91.81
30110;BME280;14965;50.660;13.226;2024-03-02T12:32:34;93949.03;;;10.18;91.14
30110;BME280;14965;50.660;13.226;2024-03-02T12:35:00;93957.31;;;10.09;90.78
30110;BME280;14965;50.660;13.226;2024-03-02T12:37:26;93960.03;;;9.91;91.82
30110;BME280;14965;50.660;13.226;2024-03-02T12:39:53;93954.94;;;9.80;93.42
30110;BME280;14965;50.660;13.226;2024-03-02T12:42:18;93951.56;;;9.76;93.48
30110;BME280;14965;50.660;13.226;2024-03-02T12:44:44;93949.13;;;9.78;93.73
30110;BME280;14965;50.660;13.226;2024-03-02T12:47:12;93954.19;;;9.80;94.01
30110;BME280;14965;50.660;13.226;2024-03-02T12:49:40;93954.72;;;9.56;93.70